createdAt,value
2022-10-12T00:00:39.474Z,66.07
2022-10-12T00:03:24.687Z,65.95
2022-10-12T00:06:11.043Z,66.10
2022-10-12T00:08:55.894Z,66.09
2022-10-12T00:11:40.800Z,65.97
2022-10-12T00:14:25.652Z,66.21
2022-10-12T00:17:10.563Z,66.07
2022-10-12T00:19:55.552Z,66.26
2022-10-12T00:22:40.400Z,66.30
2022-10-12T00:25:25.891Z,66.20
2022-10-12T00:28:10.831Z,66.15
2022-10-12T00:30:56.168Z,66.51
2022-10-12T00:33:41.796Z,66.48
2022-10-12T00:36:29.545Z,66.54
2022-10-12T00:39:14.499Z,66.67
2022-10-12T00:41:59.397Z,66.54
2022-10-12T00:44:46.719Z,66.69
2022-10-12T00:47:38.429Z,66.71
2022-10-12T00:50:31.347Z,66.64
2022-10-12T00:53:20.221Z,66.55
2022-10-12T00:56:10.378Z,66.65
2022-10-12T00:59:00.764Z,66.66
2022-10-12T01:01:46.006Z,66.47
2022-10-12T01:04:33.172Z,66.44
2022-10-12T01:07:18.410Z,66.45
2022-10-12T01:10:04.371Z,66.47
2022-10-12T01:12:49.807Z,66.56
2022-10-12T01:15:39.511Z,67.08
2022-10-12T01:18:36.132Z,67.02
2022-10-12T01:21:23.264Z,67.25
2022-10-12T01:24:42.271Z,67.25
2022-10-12T01:27:54.092Z,67.57
2022-10-12T01:30:46.654Z,67.50
2022-10-12T01:33:36.853Z,67.69
2022-10-12T01:36:42.816Z,67.48
2022-10-12T01:39:32.306Z,67.44
2022-10-12T01:42:27.239Z,67.42
2022-10-12T01:45:15.846Z,67.18
2022-10-12T01:48:02.283Z,67.08
2022-10-12T01:50:56.748Z,67.02
2022-10-12T01:53:54.817Z,66.85
2022-10-12T01:56:47.325Z,66.89
2022-10-12T02:00:00.600Z,67.11
2022-10-12T02:02:55.019Z,67.34
2022-10-12T02:05:57.071Z,67.28
2022-10-12T02:08:50.252Z,67.50
2022-10-12T02:11:40.516Z,67.58
2022-10-12T02:14:34.840Z,67.52
2022-10-12T02:17:23.646Z,67.54
2022-10-12T02:20:12.851Z,67.53
2022-10-12T02:22:58.424Z,67.47
2022-10-12T02:25:45.009Z,67.29
2022-10-12T02:28:34.796Z,67.27
2022-10-12T02:31:32.256Z,67.53
2022-10-12T02:34:31.684Z,67.75
2022-10-12T02:37:41.759Z,68.00
2022-10-12T02:40:34.931Z,67.92
2022-10-12T02:43:40.361Z,68.07
2022-10-12T02:46:27.098Z,67.74
2022-10-12T02:49:13.311Z,67.81
2022-10-12T02:51:58.792Z,67.81
2022-10-12T02:54:43.710Z,67.88
2022-10-12T02:57:28.572Z,67.91
2022-10-12T03:00:13.901Z,67.61
2022-10-12T03:02:58.746Z,67.65
2022-10-12T03:05:43.721Z,67.78
2022-10-12T03:08:28.973Z,67.68
2022-10-12T03:11:14.018Z,67.41
2022-10-12T03:13:58.795Z,67.43
2022-10-12T03:16:44.021Z,67.38
2022-10-12T03:19:29.009Z,67.28
2022-10-12T03:22:13.841Z,67.47
2022-10-12T03:24:58.742Z,67.46
2022-10-12T03:27:43.580Z,67.24
2022-10-12T03:30:28.684Z,67.08
2022-10-12T03:33:13.897Z,67.17
2022-10-12T03:35:59.192Z,67.09
2022-10-12T03:38:44.252Z,67.35
2022-10-12T03:41:29.206Z,67.21
2022-10-12T03:44:14.211Z,67.29
2022-10-12T03:46:59.078Z,67.26
2022-10-12T03:49:44.640Z,67.57
2022-10-12T03:52:29.552Z,67.34
2022-10-12T03:55:14.655Z,67.02
2022-10-12T03:58:00.115Z,67.27
2022-10-12T04:00:45.406Z,67.22
2022-10-12T04:03:30.282Z,67.34
2022-10-12T04:06:15.108Z,67.59
2022-10-12T04:09:00.284Z,67.68
2022-10-12T04:11:45.436Z,67.65
2022-10-12T04:14:30.858Z,67.57
2022-10-12T04:17:16.506Z,67.87
2022-10-12T04:20:01.787Z,67.57
2022-10-12T04:22:47.418Z,67.60
2022-10-12T04:25:33.102Z,67.67
2022-10-12T04:28:18.548Z,67.54
2022-10-12T04:31:04.070Z,67.54
2022-10-12T04:33:49.326Z,67.40
2022-10-12T04:36:34.190Z,67.50
2022-10-12T04:39:19.218Z,67.36
2022-10-12T04:42:04.586Z,67.29
2022-10-12T04:44:49.351Z,67.35
2022-10-12T04:47:35.001Z,67.46
2022-10-12T04:50:20.234Z,67.59
2022-10-12T04:53:05.103Z,67.75
2022-10-12T04:55:50.240Z,67.54
2022-10-12T04:58:35.485Z,67.71
2022-10-12T05:01:20.522Z,67.81
2022-10-12T05:04:05.850Z,67.74
2022-10-12T05:06:50.616Z,67.84
2022-10-12T05:09:35.522Z,67.87
2022-10-12T05:12:20.346Z,67.83
2022-10-12T05:15:05.844Z,67.52
2022-10-12T05:17:50.990Z,67.32
2022-10-12T05:20:36.718Z,67.27
2022-10-12T05:23:21.552Z,67.43
2022-10-12T05:26:06.716Z,67.61
2022-10-12T05:28:51.748Z,67.42
2022-10-12T05:31:37.196Z,67.62
2022-10-12T05:34:22.657Z,67.68
2022-10-12T05:37:07.870Z,67.62
2022-10-12T05:39:53.064Z,67.37
2022-10-12T05:42:38.320Z,67.31
2022-10-12T05:45:23.954Z,67.54
2022-10-12T05:48:08.873Z,67.58
2022-10-12T05:50:54.837Z,67.78
2022-10-12T05:53:40.231Z,67.87
2022-10-12T05:56:25.539Z,67.69
2022-10-12T05:59:11.377Z,67.80
2022-10-12T06:01:56.444Z,67.80
2022-10-12T06:04:41.976Z,67.69
2022-10-12T06:07:27.560Z,67.88
2022-10-12T06:10:12.354Z,67.99
2022-10-12T06:12:57.803Z,68.05
2022-10-12T06:15:44.996Z,68.02
2022-10-12T06:18:29.902Z,68.07
2022-10-12T06:21:32.405Z,68.01
2022-10-12T06:24:18.393Z,67.88
2022-10-12T06:27:04.201Z,67.88
2022-10-12T06:29:30.693Z,67.83
2022-10-12T06:31:57.149Z,67.83
2022-10-12T06:34:23.673Z,67.89
2022-10-12T06:36:50.232Z,67.66
2022-10-12T06:39:16.720Z,67.66
2022-10-12T06:41:43.248Z,67.54
2022-10-12T06:44:10.151Z,67.46
2022-10-12T06:46:36.654Z,67.68
2022-10-12T06:49:03.431Z,67.79
2022-10-12T06:51:30.061Z,67.72
2022-10-12T06:53:56.589Z,67.83
2022-10-12T06:56:23.242Z,67.80
2022-10-12T06:58:56.993Z,67.24
2022-10-12T07:01:23.645Z,67.85
2022-10-12T07:03:50.304Z,67.77
2022-10-12T07:06:17.178Z,67.52
2022-10-12T07:08:43.897Z,67.73
2022-10-12T07:11:13.031Z,67.25
2022-10-12T07:13:39.724Z,67.14
2022-10-12T07:16:07.145Z,67.16
2022-10-12T07:18:34.122Z,66.91
2022-10-12T07:21:00.701Z,67.12
2022-10-12T07:23:27.569Z,66.70
2022-10-12T07:25:54.578Z,66.48
2022-10-12T07:28:21.299Z,65.95
2022-10-12T07:30:47.782Z,65.53
2022-10-12T07:33:14.324Z,65.68
2022-10-12T07:36:03.165Z,65.52
2022-10-12T07:38:27.755Z,65.41
2022-10-12T07:40:54.288Z,65.51
2022-10-12T07:43:20.825Z,65.73
2022-10-12T07:45:47.398Z,65.43
2022-10-12T07:48:13.913Z,65.11
2022-10-12T07:50:40.552Z,65.03
2022-10-12T07:53:07.017Z,65.23
2022-10-12T07:55:33.661Z,65.48
2022-10-12T07:58:00.622Z,65.54
2022-10-12T08:00:28.049Z,65.80
2022-10-12T08:02:54.807Z,66.15
2022-10-12T08:05:21.349Z,65.95
2022-10-12T08:07:49.540Z,66.00
2022-10-12T08:10:16.106Z,65.56
2022-10-12T08:12:42.761Z,66.17
2022-10-12T08:15:09.702Z,65.84
2022-10-12T08:17:36.451Z,65.73
2022-10-12T08:20:03.774Z,65.52
2022-10-12T08:22:30.279Z,65.35
2022-10-12T08:24:56.844Z,65.55
2022-10-12T08:27:23.508Z,64.74
2022-10-12T08:29:49.989Z,63.96
2022-10-12T08:32:16.539Z,63.10
2022-10-12T08:34:43.143Z,62.35
2022-10-12T08:37:09.701Z,63.03
2022-10-12T08:39:36.441Z,63.15
2022-10-12T08:42:34.968Z,63.19
2022-10-12T08:45:30.446Z,63.44
2022-10-12T08:48:22.017Z,63.51
2022-10-12T08:51:00.197Z,63.72
2022-10-12T08:53:42.873Z,63.66
2022-10-12T08:56:09.485Z,64.48
2022-10-12T08:58:38.486Z,64.59
2022-10-12T09:01:20.520Z,63.58
2022-10-12T09:03:58.592Z,63.17
2022-10-12T09:06:59.997Z,63.97
2022-10-12T09:09:44.740Z,63.25
2022-10-12T09:12:50.535Z,63.11
2022-10-12T09:15:19.880Z,63.88
2022-10-12T09:17:58.761Z,63.60
2022-10-12T09:20:30.700Z,63.16
2022-10-12T09:23:04.879Z,63.60
2022-10-12T09:25:31.394Z,64.22
2022-10-12T09:28:13.045Z,63.33
2022-10-12T09:30:45.592Z,63.47
2022-10-12T09:33:26.492Z,63.12
2022-10-12T09:35:53.222Z,63.17
2022-10-12T09:38:19.709Z,63.07
2022-10-12T09:40:46.331Z,63.06
2022-10-12T09:43:14.340Z,63.36
2022-10-12T09:45:41.771Z,63.08
2022-10-12T09:48:19.048Z,63.32
2022-10-12T09:50:58.799Z,62.43
2022-10-12T09:53:29.741Z,63.13
2022-10-12T09:55:59.959Z,63.07
2022-10-12T09:58:27.994Z,63.11
2022-10-12T10:01:15.247Z,63.20
2022-10-12T10:03:42.222Z,63.86
2022-10-12T10:06:08.775Z,63.75
2022-10-12T10:08:45.500Z,62.10
2022-10-12T10:11:23.899Z,62.47
2022-10-12T10:13:53.314Z,63.56
2022-10-12T10:16:25.819Z,63.22
2022-10-12T10:18:58.255Z,61.08
2022-10-12T10:21:31.911Z,61.06
2022-10-12T10:24:02.330Z,62.48
2022-10-12T10:26:31.066Z,62.00
2022-10-12T10:29:21.931Z,60.46
2022-10-12T10:31:48.590Z,61.61
2022-10-12T10:34:18.148Z,60.71
2022-10-12T10:36:51.925Z,60.19
2022-10-12T10:39:22.761Z,60.37
2022-10-12T10:41:50.315Z,61.06
2022-10-12T10:44:30.916Z,61.29
2022-10-12T10:47:02.156Z,60.06
2022-10-12T10:49:49.686Z,59.85
2022-10-12T10:52:24.562Z,61.35
2022-10-12T10:55:16.429Z,60.68
2022-10-12T10:57:49.755Z,59.48
2022-10-12T11:00:37.871Z,59.06
2022-10-12T11:03:13.058Z,59.13
2022-10-12T11:05:51.996Z,58.98
2022-10-12T11:08:30.859Z,58.61
2022-10-12T11:11:21.726Z,59.12
2022-10-12T11:13:56.998Z,58.09
2022-10-12T11:16:36.431Z,58.83
2022-10-12T11:19:17.780Z,58.83
2022-10-12T11:22:02.846Z,58.57
2022-10-12T11:24:40.431Z,59.07
2022-10-12T11:27:31.776Z,60.04
2022-10-12T11:30:09.155Z,58.38
2022-10-12T11:32:43.910Z,58.27
2022-10-12T11:35:16.240Z,57.76
2022-10-12T11:37:49.383Z,57.58
2022-10-12T11:40:47.878Z,58.48
2022-10-12T11:43:15.905Z,58.22
2022-10-12T11:45:46.632Z,58.17
2022-10-12T11:48:29.502Z,58.51
2022-10-12T11:51:03.661Z,58.09
2022-10-12T11:53:46.461Z,57.65
2022-10-12T11:56:45.268Z,58.23
2022-10-12T11:59:26.461Z,57.94
2022-10-12T12:02:04.862Z,57.66
2022-10-12T12:04:43.899Z,58.20
2022-10-12T12:07:22.934Z,57.83
2022-10-12T12:09:51.177Z,59.18
2022-10-12T12:12:25.387Z,57.19
2022-10-12T12:14:54.712Z,57.72
2022-10-12T12:17:21.127Z,58.85
2022-10-12T12:19:48.436Z,59.03
2022-10-12T12:22:32.414Z,57.04
2022-10-12T12:25:09.765Z,57.85
2022-10-12T12:27:44.959Z,57.12
2022-10-12T12:30:17.579Z,57.33
2022-10-12T12:33:03.062Z,56.03
2022-10-12T12:35:57.102Z,56.24
2022-10-12T12:38:33.533Z,55.75
2022-10-12T12:41:07.415Z,54.26
2022-10-12T12:43:38.776Z,53.87
2022-10-12T12:46:07.789Z,55.07
2022-10-12T12:48:43.406Z,55.57
2022-10-12T12:51:35.821Z,56.51
2022-10-12T12:54:06.952Z,56.10
2022-10-12T12:56:45.453Z,56.08
2022-10-12T12:59:34.022Z,56.70
2022-10-12T13:02:12.713Z,56.98
2022-10-12T13:05:14.479Z,56.43
2022-10-12T13:08:20.126Z,56.90
2022-10-12T13:11:01.561Z,56.54
2022-10-12T13:13:43.101Z,57.22
2022-10-12T13:17:23.555Z,56.85
2022-10-12T13:19:21.924Z,57.61
2022-10-12T13:21:52.390Z,57.10
2022-10-12T13:24:30.278Z,56.75
2022-10-12T13:27:00.570Z,57.61
2022-10-12T13:29:59.466Z,57.35
2022-10-12T13:32:39.058Z,57.15
2022-10-12T13:35:14.302Z,57.20
2022-10-12T13:37:40.759Z,57.65
2022-10-12T13:40:28.003Z,58.03
2022-10-12T13:42:54.545Z,58.05
2022-10-12T13:45:21.154Z,57.87
2022-10-12T13:47:47.692Z,57.81
2022-10-12T13:50:21.008Z,57.75
2022-10-12T13:52:54.501Z,57.60
2022-10-12T13:55:25.757Z,58.16
2022-10-12T13:57:52.398Z,58.00
2022-10-12T14:00:21.683Z,58.08
2022-10-12T14:02:59.717Z,58.47
2022-10-12T14:05:28.411Z,58.23
2022-10-12T14:07:59.936Z,58.48
2022-10-12T14:10:31.496Z,57.94
2022-10-12T14:12:59.152Z,57.81
2022-10-12T14:15:32.192Z,57.92
2022-10-12T14:17:58.684Z,58.23
2022-10-12T14:20:37.236Z,57.97
2022-10-12T14:23:12.375Z,58.25
2022-10-12T14:25:50.579Z,58.47
2022-10-12T14:28:34.745Z,58.68
2022-10-12T14:31:01.973Z,58.73
2022-10-12T14:33:30.532Z,58.82
2022-10-12T14:36:22.965Z,59.08
2022-10-12T14:38:51.023Z,58.88
2022-10-12T14:41:38.236Z,59.29
2022-10-12T14:44:10.850Z,59.57
2022-10-12T14:46:40.569Z,59.95
2022-10-12T14:49:16.443Z,59.78
2022-10-12T14:51:43.288Z,60.29
2022-10-12T14:54:11.082Z,59.98
2022-10-12T14:56:37.808Z,60.35
2022-10-12T14:59:04.446Z,60.44
2022-10-12T15:01:31.016Z,59.87
2022-10-12T15:03:57.619Z,60.17
2022-10-12T15:06:24.151Z,60.19
2022-10-12T15:08:50.763Z,60.57
2022-10-12T15:11:17.230Z,60.66
2022-10-12T15:13:44.082Z,60.77
2022-10-12T15:16:24.391Z,60.00
2022-10-12T15:18:50.971Z,60.91
2022-10-12T15:21:18.544Z,60.68
2022-10-12T15:23:45.554Z,60.31
2022-10-12T15:26:13.782Z,60.23
2022-10-12T15:28:40.332Z,60.47
2022-10-12T15:31:22.263Z,60.38
2022-10-12T15:33:49.064Z,60.53
2022-10-12T15:36:15.809Z,60.38
2022-10-12T15:38:42.259Z,60.18
2022-10-12T15:41:17.953Z,60.17
2022-10-12T15:43:44.459Z,60.39
2022-10-12T15:46:12.084Z,60.47
2022-10-12T15:48:38.617Z,60.79
2022-10-12T15:51:09.097Z,60.42
2022-10-12T15:53:35.654Z,60.73
2022-10-12T15:56:02.216Z,60.86
2022-10-12T15:58:28.693Z,60.94
2022-10-12T16:00:55.343Z,60.75
2022-10-12T16:03:26.022Z,60.77
2022-10-12T16:05:53.444Z,61.08
2022-10-12T16:08:20.046Z,60.70
2022-10-12T16:10:47.065Z,60.55
2022-10-12T16:13:13.660Z,60.28
2022-10-12T16:15:41.862Z,60.24
2022-10-12T16:18:08.378Z,60.84
2022-10-12T16:20:37.326Z,60.51
2022-10-12T16:23:06.891Z,60.38
2022-10-12T16:25:34.857Z,60.17
2022-10-12T16:28:01.546Z,60.58
2022-10-12T16:30:28.355Z,60.45
2022-10-12T16:32:55.031Z,60.27
2022-10-12T16:35:21.661Z,60.59
2022-10-12T16:37:48.454Z,60.23
2022-10-12T16:40:15.806Z,60.50
2022-10-12T16:42:43.128Z,60.67
2022-10-12T16:45:10.669Z,60.95
2022-10-12T16:47:42.556Z,61.08
2022-10-12T16:50:09.602Z,61.21
2022-10-12T16:52:36.072Z,60.96
2022-10-12T16:55:03.123Z,60.88
2022-10-12T16:57:29.787Z,61.20
2022-10-12T16:59:56.312Z,61.27
2022-10-12T17:02:22.777Z,61.56
2022-10-12T17:04:49.329Z,61.45
2022-10-12T17:07:16.256Z,61.46
2022-10-12T17:09:42.868Z,61.43
2022-10-12T17:12:09.563Z,61.79
2022-10-12T17:14:36.054Z,61.84
2022-10-12T17:17:02.839Z,62.01
2022-10-12T17:19:34.697Z,62.04
2022-10-12T17:22:03.794Z,62.26
2022-10-12T17:24:33.347Z,62.29
2022-10-12T17:27:00.493Z,62.42
2022-10-12T17:29:28.566Z,62.47
2022-10-12T17:31:56.167Z,62.39
2022-10-12T17:34:28.791Z,62.05
2022-10-12T17:36:57.401Z,62.41
2022-10-12T17:39:24.932Z,62.34
2022-10-12T17:41:51.438Z,62.38
2022-10-12T17:44:20.984Z,62.37
2022-10-12T17:46:50.100Z,62.55
2022-10-12T17:49:24.424Z,62.53
2022-10-12T17:51:51.754Z,62.56
2022-10-12T17:54:19.439Z,62.74
2022-10-12T17:56:46.211Z,62.54
2022-10-12T17:59:18.094Z,62.68
2022-10-12T18:01:45.140Z,62.47
2022-10-12T18:04:12.872Z,62.36
2022-10-12T18:06:40.278Z,62.27
2022-10-12T18:09:08.675Z,62.28
2022-10-12T18:11:36.615Z,62.14
2022-10-12T18:14:03.718Z,62.13
2022-10-12T18:16:32.719Z,62.47
2022-10-12T18:19:00.825Z,62.70
2022-10-12T18:21:28.270Z,62.76
2022-10-12T18:23:55.686Z,62.92
2022-10-12T18:26:22.281Z,62.80
2022-10-12T18:28:50.311Z,63.04
2022-10-12T18:31:21.033Z,62.94
2022-10-12T18:33:48.031Z,63.20
2022-10-12T18:36:16.284Z,63.38
2022-10-12T18:38:45.789Z,63.35
2022-10-12T18:41:18.497Z,63.28
2022-10-12T18:43:45.311Z,63.23
2022-10-12T18:46:14.477Z,63.36
2022-10-12T18:48:41.290Z,63.30
2022-10-12T18:51:14.253Z,63.23
2022-10-12T18:53:41.196Z,63.41
2022-10-12T18:56:07.977Z,63.26
2022-10-12T18:58:34.619Z,63.00
2022-10-12T19:01:01.228Z,62.89
2022-10-12T19:03:27.996Z,62.68
2022-10-12T19:06:07.754Z,62.62
2022-10-12T19:08:34.656Z,62.58
2022-10-12T19:11:04.522Z,62.49
2022-10-12T19:13:31.030Z,62.19
2022-10-12T19:15:57.537Z,62.08
2022-10-12T19:18:23.989Z,62.10
2022-10-12T19:20:50.541Z,62.05
2022-10-12T19:23:16.993Z,62.17
2022-10-12T19:25:43.530Z,62.24
2022-10-12T19:28:10.019Z,62.12
2022-10-12T19:30:39.463Z,62.45
2022-10-12T19:33:06.072Z,62.14
2022-10-12T19:35:36.711Z,62.47
2022-10-12T19:38:03.384Z,62.20
2022-10-12T19:40:29.915Z,62.29
2022-10-12T19:42:56.435Z,62.64
2022-10-12T19:45:22.905Z,62.45
2022-10-12T19:47:49.520Z,62.36
2022-10-12T19:50:16.104Z,62.54
2022-10-12T19:52:42.660Z,62.66
2022-10-12T19:55:09.436Z,62.52
2022-10-12T19:57:38.759Z,62.75
2022-10-12T20:00:06.154Z,62.66
2022-10-12T20:02:38.243Z,62.67
2022-10-12T20:05:05.121Z,62.68
2022-10-12T20:07:31.736Z,62.66
2022-10-12T20:09:58.224Z,62.84
2022-10-12T20:12:25.518Z,62.81
2022-10-12T20:14:52.137Z,62.95
2022-10-12T20:17:29.061Z,62.94
2022-10-12T20:19:55.753Z,63.03
2022-10-12T20:22:22.451Z,62.96
2022-10-12T20:24:48.943Z,63.04
2022-10-12T20:27:15.492Z,63.06
2022-10-12T20:29:43.128Z,63.03
2022-10-12T20:32:09.969Z,63.14
2022-10-12T20:34:36.600Z,63.05
2022-10-12T20:37:03.083Z,63.11
2022-10-12T20:39:29.668Z,63.28
2022-10-12T20:41:56.314Z,63.15
2022-10-12T20:44:22.833Z,63.17
2022-10-12T20:46:54.834Z,63.20
2022-10-12T20:49:21.559Z,63.26
2022-10-12T20:51:48.086Z,63.34
2022-10-12T20:54:15.983Z,63.29
2022-10-12T20:56:43.151Z,63.29
2022-10-12T20:59:10.749Z,63.20
2022-10-12T21:01:37.548Z,63.37
2022-10-12T21:04:04.176Z,63.25
2022-10-12T21:06:30.736Z,63.19
2022-10-12T21:08:57.944Z,63.33
2022-10-12T21:11:24.979Z,63.36
2022-10-12T21:13:51.977Z,63.47
2022-10-12T21:16:19.068Z,63.44
2022-10-12T21:18:45.746Z,63.45
2022-10-12T21:21:15.428Z,63.54
2022-10-12T21:23:44.754Z,63.66
2022-10-12T21:26:17.064Z,63.67
2022-10-12T21:28:43.964Z,63.55
2022-10-12T21:31:11.987Z,63.57
2022-10-12T21:33:38.840Z,63.47
2022-10-12T21:36:16.599Z,63.48
2022-10-12T21:38:43.739Z,63.64
2022-10-12T21:41:12.653Z,63.56
2022-10-12T21:43:40.623Z,63.57
2022-10-12T21:46:12.255Z,63.69
2022-10-12T21:48:39.564Z,63.55
2022-10-12T21:51:07.406Z,63.64
2022-10-12T21:53:34.669Z,63.65
2022-10-12T21:56:13.098Z,63.82
2022-10-12T21:58:39.618Z,63.79
2022-10-12T22:01:14.624Z,63.85
2022-10-12T22:03:42.748Z,63.82
2022-10-12T22:06:17.692Z,63.81
2022-10-12T22:08:44.799Z,63.64
2022-10-12T22:11:16.996Z,63.82
2022-10-12T22:13:43.596Z,63.73
2022-10-12T22:16:16.632Z,63.73
2022-10-12T22:18:43.891Z,63.59
2022-10-12T22:21:13.262Z,63.64
2022-10-12T22:23:40.176Z,63.70
2022-10-12T22:26:13.884Z,63.97
2022-10-12T22:28:49.044Z,63.73
2022-10-12T22:31:17.791Z,63.76
2022-10-12T22:33:45.244Z,63.73
2022-10-12T22:36:13.331Z,63.74
2022-10-12T22:38:39.755Z,64.18
2022-10-12T22:41:13.977Z,63.88
2022-10-12T22:43:48.222Z,63.81
2022-10-12T22:46:14.831Z,63.79
2022-10-12T22:48:41.447Z,63.91
2022-10-12T22:51:11.871Z,63.93
2022-10-12T22:53:38.511Z,63.95
2022-10-12T22:56:13.621Z,64.01
2022-10-12T22:58:40.219Z,63.85
2022-10-12T23:01:09.038Z,63.82
2022-10-12T23:03:36.796Z,63.90
2022-10-12T23:06:10.298Z,64.02
2022-10-12T23:08:36.847Z,64.02
2022-10-12T23:11:09.166Z,63.97
2022-10-12T23:13:37.109Z,63.93
2022-10-12T23:16:07.676Z,64.12
2022-10-12T23:18:34.384Z,64.02
2022-10-12T23:21:07.369Z,63.92
2022-10-12T23:23:35.309Z,64.00
2022-10-12T23:26:05.663Z,64.14
2022-10-12T23:28:32.230Z,64.09
2022-10-12T23:30:58.962Z,64.11
2022-10-12T23:33:25.520Z,64.11
2022-10-12T23:35:56.489Z,64.03
2022-10-12T23:38:23.274Z,64.01
2022-10-12T23:40:50.604Z,64.00
2022-10-12T23:43:17.153Z,64.18
2022-10-12T23:45:44.266Z,64.12
2022-10-12T23:48:11.086Z,64.18
2022-10-12T23:50:39.092Z,64.18
2022-10-12T23:53:06.720Z,64.16
2022-10-12T23:55:34.111Z,64.15
2022-10-12T23:58:01.091Z,64.13
